Terminal Aerodrome Forecast
Issued by NWS

Home | Current Version | Previous Version | Graphics & Text | Print | Product List | Glossary On
Versions: 1 2 3 4 5 6 7 8 9 10 11 12 13 14 15 16 17 18 19 20 21 22
000
FTUS43 KMPX 222333
TAFRWF
TAF
KRWF 222333Z 2300/2324 13006KT P6SM FEW050
     FM230200 10006KT P6SM FEW200
     FM230800 13005KT 6SM SHRA BKN080
     FM230900 14007KT 5SM -RA VCTS BKN040CB
      TEMPO 2310/2314 3SM -TSRA BKN030CB
     FM231600 15013G20KT P6SM BKN050
     FM232000 16013KT P6SM SCT100=

USA.gov is the U.S. government's official web portal to all federal, state and local government web resources and services.